Latest Coastal Weather Observations for Gold Coast Seaway

IDQ60701

Issued at 6:32 am EST Sunday 2 October 2016 (issued every 10 minutes, with the page automatically refreshed every 10 minutes)

About coastal observations | Map of coastal stations | Coastal observations for QLD | Marine services | Other Formats
Station Details ID: 040764 Name: GOLD COAST SEAWAY Lat: -27.94 Lon: 153.43 Height: 2.98 m
Data from the previous 72 hours. | See also: Recent months at Gold Coast Seaway
Date/Time
EST
Temp
°C
Wind Pressure Rain since
9am
mm
Weather Cloud Vis
km
Sea
Height
m
Swell
Dir  Spd
kts
Gust
kts
hPa Trend Height
m
Period
s
Dir
02/06:30am 14.8 SSW 9 11 1015.5 - - - - - - - - -
02/06:00am 13.8 SW 5 7 1015.4 - - - - - - - - -
02/05:30am 13.1 W 6 7 1015.2 - - - - - - - - -
02/05:00am 13.1 WNW 7 8 1015.0 - - - - - - - - -
02/04:30am 13.7 WNW 8 9 1014.6 - - - - - - - - -
02/04:00am 11.2 SSW 3 4 1014.2 - - - - - - - - -
02/03:30am 12.7 S 5 6 1013.7 - - - - - - - - -
02/03:00am 14.4 W 7 8 1013.4 - 0.0 - - - - - - -
02/02:30am 14.7 W 7 8 1013.3 - - - - - - - - -
02/02:00am 14.8 W 6 7 1013.5 - - - - - - - - -
02/01:30am 14.8 W 6 7 1013.6 - - - - - - - - -
02/01:00am 13.3 NNW 2 5 1013.5 - - - - - - - - -
02/12:30am 13.3 W 5 5 1013.3 - - - - - - - - -
02/12:00am 16.0 WNW 3 6 1013.2 - - - - - - - - -
 
Date/Time
EST
Temp
°C
Wind Pressure Rain since
9am
mm
Weather Cloud Vis
km
Sea
Height
m
Swell
Dir  Spd
kts
Gust
kts
hPa Trend Height
m
Period
s
Dir
01/11:30pm 16.9 NW 6 8 1013.1 - - - - - - - - -
01/11:00pm 17.2 NNW 7 8 1013.2 - - - - - - - - -
01/10:30pm 15.2 NW 4 5 1013.3 - - - - - - - - -
01/10:00pm 18.0 NNW 7 8 1013.3 - - - - - - - - -
01/09:30pm 19.6 W 8 8 1013.5 - - - - - - - - -
01/09:00pm 19.9 WNW 8 9 1013.7 - 0.0 - - - - - - -
01/08:30pm 16.6 NW 3 4 1013.6 - - - - - - - - -
01/08:00pm 19.1 NNW 6 8 1013.1 - - - - - - - - -
01/07:30pm 19.8 N 3 6 1012.6 - - - - - - - - -
01/07:00pm 22.0 WNW 9 11 1011.8 - - - - - - - - -
01/06:30pm 22.7 WNW 10 14 1011.5 - - - - - - - - -
01/06:00pm 23.4 WNW 15 18 1011.1 - - - - - - - - -
01/05:30pm 24.2 WNW 15 19 1010.7 - - - - - - - - -
01/05:00pm 25.0 WNW 17 21 1010.4 - - - - - - - - -
01/04:30pm 25.5 WNW 15 20 1009.8 - - - - - - - - -
01/04:00pm 25.8 WNW 18 21 1009.5 - - - - - - - - -
01/03:30pm 25.9 WNW 20 26 1009.3 - - - - - - - - -
01/03:00pm 26.0 WNW 18 24 1009.3 - - - - - - - - -
01/02:30pm 26.1 NW 19 26 1009.3 - - - - - - - - -
01/01:30pm 25.6 NW 20 27 1010.0 - 0.0 - - - - - - -
01/01:00pm 25.5 WNW 18 22 1010.2 - 0.0 - - - - - - -
01/12:30pm 25.3 W 14 20 1010.4 - 0.0 - - - - - - -
01/12:00pm 24.7 W 14 18 1010.5 - 0.0 - - - - - - -
01/11:30am 23.9 NW 12 18 1011.2 - 0.0 - - - - - - -
01/11:00am 23.4 WNW 12 20 1011.7 - 0.0 - - - - - - -
01/10:30am 23.1 WSW 7 11 1012.2 - 0.0 - - - - - - -
01/10:00am 22.2 WSW 12 22 1012.7 - 0.0 - - - - - - -
01/09:30am 21.1 W 13 21 1012.5 - 0.0 - - - - - - -
01/09:27am 21.2 WNW 11 21 1012.5 - 0.0 - - - - - - -
01/09:00am 19.9 N 8 11 1012.7 - 0.0 - - - - - - -
01/08:30am 18.8 NNW 9 12 1013.0 - 0.0 - - - - - - -
01/08:00am 17.8 N 7 8 1012.7 - 0.0 - - - - - - -
01/07:30am 16.8 NNW 6 7 1012.3 - 0.0 - - - - - - -
01/07:00am 15.7 NNW 7 9 1012.0 - 0.0 - - - - - - -
01/06:30am 14.3 NNW 5 7 1011.7 - 0.0 - - - - - - -
01/06:00am 13.8 WNW 7 9 1011.3 - 0.0 - - - - - - -
01/05:30am 13.3 NW 8 10 1011.3 - 0.0 - - - - - - -
01/05:00am 12.8 NW 6 7 1011.0 - 0.0 - - - - - - -
01/04:30am 12.4 NNW 7 8 1010.8 - 0.0 - - - - - - -
01/04:00am 12.4 NNW 7 8 1010.1 - 0.0 - - - - - - -
01/03:30am 11.5 NNW 5 7 1009.4 - 0.0 - - - - - - -
01/03:00am 11.1 NW 3 4 1009.4 - 0.0 - - - - - - -
01/02:30am 12.5 WNW 5 7 1009.7 - 0.0 - - - - - - -
01/02:00am 12.9 SW 6 7 1009.6 - 0.0 - - - - - - -
01/01:30am 14.8 WNW 9 10 1009.6 - 0.0 - - - - - - -
01/01:00am 14.1 WNW 5 7 1009.9 - 0.0 - - - - - - -
01/12:30am 14.9 NNW 4 5 1009.9 - 0.0 - - - - - - -
01/12:00am 15.4 N 8 10 1009.8 - 0.0 - - - - - - -
 
Date/Time
EST
Temp
°C
Wind Pressure Rain since
9am
mm
Weather Cloud Vis
km
Sea
Height
m
Swell
Dir  Spd
kts
Gust
kts
hPa Trend Height
m
Period
s
Dir
30/11:30pm 16.0 NNW 8 9 1009.3 - 0.0 - - - - - - -
30/11:00pm 16.0 NNW 6 8 1009.7 - 0.0 - - - - - - -
30/10:30pm 16.7 NNW 9 10 1009.8 - 0.0 - - - - - - -
30/10:00pm 17.5 NNW 7 8 1009.7 - 0.0 - - - - - - -
30/09:30pm 17.3 WNW 6 9 1009.5 - 0.0 - - - - - - -
30/09:00pm 18.5 W 8 10 1009.5 - 0.0 - - - - - - -
30/08:30pm 17.9 W 7 10 1009.1 - 0.0 - - - - - - -
30/08:00pm 19.3 WNW 10 14 1008.9 - 0.0 - - - - - - -
30/07:30pm 19.7 WNW 11 15 1008.2 - 0.0 - - - - - - -
30/07:00pm 20.3 WNW 13 17 1007.4 - 0.0 - - - - - - -
30/06:30pm 20.6 W 13 19 1006.7 - 0.0 - - - - - - -
30/06:00pm 21.3 W 18 25 1006.1 - 0.0 - - - - - - -
30/05:30pm 21.9 W 18 23 1005.3 - 0.0 - - - - - - -
30/05:04pm 22.8 W 17 27 1005.0 - 0.0 - - - - - - -
30/05:00pm 22.8 W 19 27 1004.9 - 0.0 - - - - - - -
30/04:59pm 22.9 W 19 27 1004.8 - 0.0 - - - - - - -
30/04:30pm 23.7 WNW 21 27 1004.3 - 0.0 - - - - - - -
30/04:00pm 24.2 WNW 22 31 1003.7 - 0.0 - - - - - - -
30/03:30pm 24.2 WNW 25 32 1003.4 - 0.0 - - - - - - -
30/03:09pm 24.4 WNW 23 33 1003.1 - 0.0 - - - - - - -
30/03:00pm 24.5 NW 26 33 1003.0 - 0.0 - - - - - - -
30/02:30pm 24.4 WNW 25 32 1002.8 - 0.0 - - - - - - -
30/02:00pm 24.4 WNW 26 34 1003.0 - 0.0 - - - - - - -
30/01:44pm 24.0 WNW 23 33 1003.1 - 0.0 - - - - - - -
30/01:30pm 24.1 NW 25 32 1003.1 - 0.0 - - - - - - -
30/01:00pm 23.7 NW 26 36 1003.4 - 0.0 - - - - - - -
30/12:37pm 24.0 WNW 25 37 1003.3 - 0.0 - - - - - - -
30/12:30pm 23.6 NW 24 32 1003.4 - 0.0 - - - - - - -
30/12:00pm 22.8 NW 28 33 1003.7 - 0.0 - - - - - - -
30/11:30am 22.9 NW 25 32 1004.0 - 0.0 - - - - - - -
30/11:00am 22.3 NW 22 32 1004.4 - 0.0 - - - - - - -
30/10:30am 22.4 WNW 20 32 1004.5 - 0.0 - - - - - - -
30/10:00am 22.0 WNW 18 22 1005.1 - 0.0 - - - - - - -
30/09:30am 21.5 WNW 20 24 1005.2 - 0.0 - - - - - - -
30/09:00am 21.2 WNW 21 26 1005.5 - - - - - - - - -
30/08:30am 21.3 WNW 17 23 1005.8 - - - - - - - - -
30/08:00am 21.1 NW 14 18 1005.8 - - - - - - - - -
30/07:30am 20.1 NW 14 17 1006.0 - - - - - - - - -
30/07:00am 19.5 NW 11 14 1005.7 - - - - - - - - -
30/06:30am 18.2 NW 9 11 1005.4 - - - - - - - - -
30/06:00am 17.7 NW 9 11 1005.4 - - - - - - - - -
30/05:30am 17.7 NW 10 13 1005.1 - - - - - - - - -
30/05:00am 17.4 NW 10 13 1004.9 - - - - - - - - -
30/04:30am 17.9 NNW 9 13 1004.7 - - - - - - - - -
30/04:00am 18.3 NW 10 14 1004.8 - - - - - - - - -
30/03:30am 18.6 NW 12 15 1004.7 - - - - - - - - -
30/03:00am 18.7 NW 14 17 1004.9 - 0.0 - - - - - - -
30/02:30am 18.7 NW 11 15 1004.8 - - - - - - - - -
30/02:00am 18.9 NW 13 16 1005.2 - - - - - - - - -
30/01:30am 18.8 WNW 12 15 1005.8 - - - - - - - - -
30/01:00am 18.8 NW 11 16 1005.8 - - - - - - - - -
30/12:30am 18.5 NW 10 15 1006.1 - - - - - - - - -
30/12:00am 18.3 NNW 10 14 1006.3 - - - - - - - - -
 
Date/Time
EST
Temp
°C
Wind Pressure Rain since
9am
mm
Weather Cloud Vis
km
Sea
Height
m
Swell
Dir  Spd
kts
Gust
kts
hPa Trend Height
m
Period
s
Dir
29/11:30pm 18.3 NNW 12 16 1006.5 - - - - - - - - -
29/11:00pm 18.4 NNW 13 19 1006.6 - - - - - - - - -
29/10:30pm 18.5 NNW 12 16 1006.8 - - - - - - - - -
29/10:00pm 18.9 NNW 13 19 1007.0 - - - - - - - - -
29/09:30pm 19.2 NNW 16 20 1006.8 - - - - - - - - -
29/09:00pm 19.4 NNW 17 26 1006.7 - 0.0 - - - - - - -
29/08:46pm 19.4 NNW 17 27 1006.8 - - - - - - - - -
29/08:30pm 19.4 NNW 16 24 1006.8 - - - - - - - - -
29/08:00pm 19.5 NNW 13 18 1006.9 - - - - - - - - -
29/07:30pm 19.4 NNW 10 15 1006.8 - - - - - - - - -
29/07:00pm 19.2 NNW 10 14 1006.4 - - - - - - - - -
29/06:30pm 18.9 NNW 10 13 1006.5 - - - - - - - - -
29/06:00pm 19.0 NW 9 13 1006.4 - - - - - - - - -
29/05:30pm 19.1 NNW 8 10 1006.2 - - - - - - - - -
29/05:00pm 20.0 NW 15 19 1006.2 - - - - - - - - -
29/04:30pm 20.4 NW 12 18 1006.2 - - - - - - - - -
29/04:00pm 20.5 WNW 13 15 1006.0 - - - - - - - - -
29/03:30pm 21.2 NW 13 16 1006.0 - - - - - - - - -
29/03:00pm 21.5 NW 10 13 1005.6 - - - - - - - - -
29/02:30pm 21.6 NW 12 15 1006.0 - 0.0 - - - - - - -
29/02:00pm 21.6 NNW 10 14 1006.2 - 0.0 - - - - - - -
29/01:30pm 21.4 NNW 11 15 1006.6 - 0.0 - - - - - - -
29/01:00pm 22.4 NNW 11 17 1007.5 - 0.0 - - - - - - -
29/12:30pm 22.4 NNW 14 21 1007.7 - 0.0 - - - - - - -
29/12:01pm 22.2 NNW 17 27 1008.1 - 0.0 - - - - - - -
29/12:00pm 22.3 NNW 18 27 1008.0 - 0.0 - - - - - - -
29/11:30am 22.8 NNW 17 28 1007.6 - 0.0 - - - - - - -
29/11:20am 22.9 NNW 17 27 1007.7 - 0.0 - - - - - - -
29/11:00am 22.9 NNW 15 20 1007.8 - 0.0 - - - - - - -
29/10:30am 22.3 NNW 13 21 1008.2 - 0.0 - - - - - - -
29/10:00am 22.3 NNW 11 17 1008.6 - 0.0 - - - - - - -
29/09:30am 22.2 N 12 16 1008.7 - 0.0 - - - - - - -
29/09:00am 20.9 N 8 10 1008.7 - 0.0 - - - - - - -
29/08:30am 20.3 N 5 7 1009.5 - 0.0 - - - - - - -
29/08:00am 19.5 NW 4 5 1009.9 - 0.0 - - - - - - -
29/07:30am 19.2 NW 5 6 1010.0 - 0.0 - - - - - - -
29/07:00am 19.3 NW 6 7 1009.4 - 0.0 - - - - - - -

Other Formats:

Comma delimited format used in spreadsheet applications
http://www.bom.gov.au/fwo/IDQ60701/IDQ60701.94580.axf

JavaScript Object Notation format (JSON) in row-major order
http://www.bom.gov.au/fwo/IDQ60701/IDQ60701.94580.json